createdAt,value
2018-09-28T00:00:54.997Z,24.00
2018-09-28T00:03:29.632Z,27.77
2018-09-28T00:06:04.148Z,27.27
2018-09-28T00:08:38.636Z,27.37
2018-09-28T00:11:13.400Z,30.27
2018-09-28T00:13:47.925Z,28.80
2018-09-28T00:16:22.605Z,31.67
2018-09-28T00:18:57.149Z,30.43
2018-09-28T00:21:31.608Z,35.33
2018-09-28T00:24:08.228Z,29.87
2018-09-28T00:26:42.812Z,27.63
2018-09-28T00:29:17.594Z,34.90
2018-09-28T00:31:52.267Z,31.87
2018-09-28T00:34:26.805Z,34.80
2018-09-28T00:37:01.909Z,31.87
2018-09-28T00:39:36.429Z,34.03
2018-09-28T00:42:10.922Z,34.30
2018-09-28T00:44:45.313Z,32.30
2018-09-28T00:47:19.745Z,32.03
2018-09-28T00:49:54.728Z,30.27
2018-09-28T00:52:29.304Z,31.00
2018-09-28T00:55:04.181Z,33.83
2018-09-28T00:57:38.616Z,35.90
2018-09-28T01:00:13.152Z,32.13
2018-09-28T01:02:48.026Z,33.57
2018-09-28T01:05:22.625Z,34.63
2018-09-28T01:07:57.217Z,30.73
2018-09-28T01:10:32.060Z,32.80
2018-09-28T01:13:06.533Z,29.97
2018-09-28T01:15:40.996Z,26.57
2018-09-28T01:18:15.534Z,25.30
2018-09-28T01:20:49.996Z,32.53
2018-09-28T01:23:24.416Z,22.80
2018-09-28T01:25:58.992Z,27.03
2018-09-28T01:28:38.383Z,25.13
2018-09-28T01:31:20.145Z,21.70
2018-09-28T01:34:00.957Z,25.70
2018-09-28T01:36:35.493Z,23.90
2018-09-28T01:39:10.653Z,24.57
2018-09-28T01:41:45.021Z,26.00
2018-09-28T01:44:26.423Z,24.03
2018-09-28T01:47:20.540Z,27.93
2018-09-28T01:52:54.852Z,26.00
2018-09-28T01:58:30.297Z,25.73
2018-09-28T02:01:04.832Z,25.30
2018-09-28T02:03:39.313Z,28.07
2018-09-28T02:06:13.972Z,28.43
2018-09-28T02:08:52.014Z,30.47
2018-09-28T02:11:30.865Z,28.87
2018-09-28T02:14:12.168Z,26.00
2018-09-28T02:16:47.062Z,23.73
2018-09-28T02:19:21.649Z,27.93
2018-09-28T02:21:56.652Z,24.37
2018-09-28T02:24:31.143Z,26.37
2018-09-28T02:27:05.581Z,26.50
2018-09-28T02:29:40.224Z,31.20
2018-09-28T02:32:14.849Z,28.33
2018-09-28T02:34:49.789Z,36.83
2018-09-28T02:37:24.316Z,37.93
2018-09-28T02:39:58.771Z,36.53
2018-09-28T02:42:33.369Z,40.53
2018-09-28T02:45:07.980Z,46.53
2018-09-28T02:47:42.698Z,44.47
2018-09-28T02:50:17.109Z,46.73
2018-09-28T02:52:52.094Z,47.23
2018-09-28T02:55:26.840Z,52.53
2018-09-28T02:58:01.497Z,44.17
2018-09-28T03:00:35.969Z,53.80
2018-09-28T03:03:10.817Z,48.73
2018-09-28T03:05:45.372Z,51.17
2018-09-28T03:08:19.833Z,43.47
2018-09-28T03:10:54.377Z,47.10
2018-09-28T03:13:28.940Z,47.77
2018-09-28T03:16:03.865Z,49.27
2018-09-28T03:18:38.396Z,48.83
2018-09-28T03:21:12.881Z,55.37
2018-09-28T03:23:47.878Z,59.63
2018-09-28T03:26:22.545Z,53.80
2018-09-28T03:28:57.081Z,52.30
2018-09-28T03:31:31.642Z,49.13
2018-09-28T03:34:06.478Z,56.43
2018-09-28T03:36:40.959Z,50.80
2018-09-28T03:39:15.717Z,57.27
2018-09-28T03:41:50.474Z,52.97
2018-09-28T03:44:25.206Z,53.07
2018-09-28T03:46:59.838Z,63.10
2018-09-28T03:49:34.437Z,64.70
2018-09-28T03:52:09.091Z,49.33
2018-09-28T03:54:43.534Z,58.93
2018-09-28T03:57:17.961Z,53.80
2018-09-28T03:59:52.690Z,54.70
2018-09-28T04:02:27.145Z,55.53
2018-09-28T04:05:01.648Z,56.30
2018-09-28T04:07:36.501Z,58.10
2018-09-28T04:10:10.893Z,56.37
2018-09-28T04:12:45.420Z,62.67
2018-09-28T04:15:19.968Z,66.87
2018-09-28T04:17:54.371Z,71.17
2018-09-28T04:20:28.848Z,68.27
2018-09-28T04:23:03.270Z,65.07
2018-09-28T04:25:37.790Z,65.10
2018-09-28T04:28:12.238Z,69.07
2018-09-28T04:30:46.847Z,70.47
2018-09-28T04:33:21.273Z,76.70
2018-09-28T04:35:55.910Z,68.37
2018-09-28T04:38:30.609Z,71.03
2018-09-28T04:41:05.104Z,77.10
2018-09-28T04:43:39.956Z,74.93
2018-09-28T04:46:14.690Z,67.77
2018-09-28T04:48:49.296Z,73.50
2018-09-28T04:51:23.998Z,76.63
2018-09-28T04:53:58.640Z,76.10
2018-09-28T04:56:55.543Z,70.70
2018-09-28T04:59:30.148Z,75.57
2018-09-28T05:02:04.772Z,68.73
2018-09-28T05:04:39.225Z,71.07
2018-09-28T05:07:17.290Z,70.93
2018-09-28T05:09:52.457Z,71.40
2018-09-28T05:12:27.104Z,69.60
2018-09-28T05:15:01.609Z,70.63
2018-09-28T05:17:36.333Z,74.67
2018-09-28T05:20:10.725Z,69.00
2018-09-28T05:22:45.939Z,71.10
2018-09-28T05:25:20.422Z,74.10
2018-09-28T05:27:55.003Z,71.30
2018-09-28T05:30:29.504Z,65.73
2018-09-28T05:33:04.464Z,73.80
2018-09-28T05:35:38.861Z,75.33
2018-09-28T05:38:13.329Z,68.67
2018-09-28T05:40:47.917Z,62.40
2018-09-28T05:43:22.345Z,56.73
2018-09-28T05:45:56.818Z,62.20
2018-09-28T05:48:31.298Z,59.07
2018-09-28T05:51:06.218Z,76.20
2018-09-28T05:53:41.099Z,55.30
2018-09-28T05:56:15.436Z,57.57
2018-09-28T05:58:55.529Z,58.53
2018-09-28T06:01:35.474Z,57.77
2018-09-28T06:04:27.380Z,56.53
2018-09-28T06:07:01.859Z,64.23
2018-09-28T06:09:36.536Z,56.77
2018-09-28T06:12:10.984Z,60.47
2018-09-28T06:14:45.453Z,58.17
2018-09-28T06:17:19.993Z,56.23
2018-09-28T06:19:54.740Z,55.77
2018-09-28T06:22:29.257Z,56.50
2018-09-28T06:25:03.804Z,56.77
2018-09-28T06:27:38.228Z,57.87
2018-09-28T06:30:12.682Z,56.47
2018-09-28T06:32:47.129Z,61.13
2018-09-28T06:35:21.359Z,57.60
2018-09-28T06:37:56.052Z,55.40
2018-09-28T06:40:30.556Z,52.63
2018-09-28T06:43:04.871Z,63.90
2018-09-28T06:45:39.359Z,67.13
2018-09-28T06:48:13.737Z,70.57
2018-09-28T06:50:48.134Z,68.73
2018-09-28T06:56:21.528Z,81.20
2018-09-28T06:58:56.128Z,88.67
2018-09-28T07:01:30.537Z,92.77
2018-09-28T07:04:04.980Z,93.70
2018-09-28T07:06:39.215Z,102.87
2018-09-28T07:09:13.814Z,98.83
2018-09-28T07:11:48.099Z,100.77
2018-09-28T07:20:20.015Z,102.33
2018-09-28T07:22:54.386Z,108.60
2018-09-28T07:25:28.780Z,104.07
2018-09-28T07:28:03.233Z,97.20
2018-09-28T07:30:37.686Z,108.03
2018-09-28T07:33:12.442Z,108.43
2018-09-28T07:35:46.885Z,101.27
2018-09-28T07:38:21.495Z,95.60
2018-09-28T07:40:55.731Z,106.40
2018-09-28T07:43:30.306Z,103.03
2018-09-28T07:46:04.713Z,94.80
2018-09-28T07:48:39.186Z,100.03
2018-09-28T07:51:13.907Z,96.20
2018-09-28T07:53:48.195Z,95.53
2018-09-28T07:56:22.599Z,93.60
2018-09-28T07:58:57.064Z,94.00
2018-09-28T08:01:31.508Z,91.67
2018-09-28T08:04:06.236Z,93.53
2018-09-28T08:06:41.523Z,88.30
2018-09-28T08:09:15.913Z,87.23
2018-09-28T08:11:50.306Z,91.37
2018-09-28T08:14:24.738Z,85.57
2018-09-28T08:16:59.181Z,81.73
2018-09-28T08:19:33.567Z,84.10
2018-09-28T08:22:08.149Z,81.23
2018-09-28T08:24:42.409Z,74.83
2018-09-28T08:27:16.764Z,83.63
2018-09-28T08:29:51.469Z,80.13
2018-09-28T08:32:25.900Z,85.40
2018-09-28T08:35:00.352Z,78.50
2018-09-28T08:37:34.644Z,90.60
2018-09-28T08:40:09.060Z,83.90
2018-09-28T08:42:43.759Z,91.73
2018-09-28T08:45:18.040Z,82.37
2018-09-28T08:47:52.482Z,72.30
2018-09-28T08:50:26.751Z,83.97
2018-09-28T08:53:01.164Z,79.40
2018-09-28T08:55:35.654Z,62.87
2018-09-28T08:58:10.077Z,69.93
2018-09-28T09:00:44.968Z,66.90
2018-09-28T09:03:19.397Z,54.77
2018-09-28T09:05:53.909Z,44.53
2018-09-28T09:08:28.551Z,45.37
2018-09-28T09:11:03.400Z,42.03
2018-09-28T09:13:38.112Z,42.20
2018-09-28T09:16:12.391Z,32.97
2018-09-28T09:18:46.783Z,36.77
2018-09-28T09:21:21.223Z,28.27
2018-09-28T09:23:55.590Z,35.00
2018-09-28T09:26:30.257Z,37.43
2018-09-28T09:29:04.879Z,32.50
2018-09-28T09:31:39.347Z,29.53
2018-09-28T09:34:14.100Z,26.40
2018-09-28T09:36:48.588Z,29.27
2018-09-28T09:39:22.864Z,23.03
2018-09-28T09:41:57.144Z,25.40
2018-09-28T09:44:31.516Z,20.50
2018-09-28T09:47:05.948Z,24.97
2018-09-28T09:49:40.664Z,27.33
2018-09-28T09:52:15.113Z,25.13
2018-09-28T09:54:49.677Z,24.47
2018-09-28T09:57:24.236Z,27.67
2018-09-28T09:59:58.813Z,32.07
2018-09-28T10:02:38.686Z,31.87
2018-09-28T10:05:13.369Z,26.63
2018-09-28T10:07:48.119Z,23.70
2018-09-28T10:10:22.746Z,32.20
2018-09-28T10:12:57.250Z,27.37
2018-09-28T10:15:32.101Z,30.03
2018-09-28T10:18:06.695Z,22.63
2018-09-28T10:20:41.503Z,22.33
2018-09-28T10:23:16.147Z,25.57
2018-09-28T10:25:50.735Z,26.83
2018-09-28T10:28:25.371Z,25.27
2018-09-28T10:31:00.054Z,17.87
2018-09-28T10:33:34.666Z,24.57
2018-09-28T10:36:09.084Z,22.10
2018-09-28T10:38:44.081Z,21.73
2018-09-28T10:41:18.642Z,21.17
2018-09-28T10:43:52.986Z,18.90
2018-09-28T10:46:27.518Z,16.13
2018-09-28T10:49:02.010Z,22.37
2018-09-28T10:51:36.790Z,24.10
2018-09-28T10:54:11.350Z,18.87
2018-09-28T10:56:45.635Z,23.30
2018-09-28T10:59:19.924Z,24.10
2018-09-28T11:01:54.411Z,17.77
2018-09-28T11:04:28.927Z,22.80
2018-09-28T11:07:03.216Z,15.60
2018-09-28T11:09:37.615Z,13.17
2018-09-28T11:12:11.952Z,18.03
2018-09-28T11:14:46.597Z,17.47
2018-09-28T11:17:20.900Z,8.57
2018-09-28T11:19:55.709Z,19.00
2018-09-28T11:22:30.213Z,17.87
2018-09-28T11:25:04.816Z,17.10
2018-09-28T11:27:39.254Z,12.80
2018-09-28T11:30:13.774Z,14.50
2018-09-28T11:32:48.336Z,12.47
2018-09-28T11:35:22.910Z,14.03
2018-09-28T11:37:57.608Z,13.33
2018-09-28T11:40:32.342Z,11.13
2018-09-28T11:43:07.013Z,9.43
2018-09-28T11:45:41.532Z,9.90
2018-09-28T11:48:16.901Z,13.10
2018-09-28T11:50:51.748Z,12.53
2018-09-28T11:53:26.409Z,17.30
2018-09-28T11:56:00.895Z,16.80
2018-09-28T11:58:35.468Z,15.90
2018-09-28T12:01:10.119Z,16.07
2018-09-28T12:03:44.670Z,16.80
2018-09-28T12:06:19.270Z,14.77
2018-09-28T12:08:53.810Z,18.80
2018-09-28T12:11:28.321Z,15.20
2018-09-28T12:14:03.459Z,13.30
2018-09-28T12:16:38.117Z,8.83
2018-09-28T12:19:12.848Z,9.60
2018-09-28T12:21:47.586Z,10.57
2018-09-28T12:24:22.346Z,11.00
2018-09-28T12:26:57.282Z,11.00
2018-09-28T12:29:32.320Z,15.83
2018-09-28T12:32:06.836Z,13.57
2018-09-28T12:34:41.461Z,11.90
2018-09-28T12:37:16.034Z,14.57
2018-09-28T12:39:50.481Z,12.50
2018-09-28T12:42:25.218Z,16.60
2018-09-28T12:45:00.075Z,13.23
2018-09-28T12:47:34.412Z,12.93
2018-09-28T12:50:08.901Z,10.97
2018-09-28T12:52:43.437Z,13.37
2018-09-28T12:55:18.119Z,10.07
2018-09-28T12:57:53.091Z,19.30
2018-09-28T13:00:27.916Z,12.10
2018-09-28T13:03:02.524Z,15.77
2018-09-28T13:05:37.190Z,18.90
2018-09-28T13:08:11.930Z,15.23
2018-09-28T13:10:47.588Z,17.37
2018-09-28T13:13:22.136Z,15.63
2018-09-28T13:15:57.028Z,11.13
2018-09-28T13:18:31.558Z,11.40
2018-09-28T13:21:05.991Z,17.30
2018-09-28T13:23:40.781Z,13.87
2018-09-28T13:26:15.406Z,13.03
2018-09-28T13:28:50.025Z,18.47
2018-09-28T13:31:25.165Z,15.78
2018-09-28T13:33:59.736Z,15.97
2018-09-28T13:36:34.443Z,19.00
2018-09-28T13:39:09.559Z,14.43
2018-09-28T13:41:44.150Z,13.37
2018-09-28T13:44:18.895Z,14.70
2018-09-28T13:46:53.661Z,15.20
2018-09-28T13:49:28.121Z,11.67
2018-09-28T13:52:02.910Z,12.97
2018-09-28T13:54:37.736Z,17.07
2018-09-28T13:57:12.236Z,12.30
2018-09-28T13:59:46.784Z,18.63
2018-09-28T14:02:21.385Z,12.53
2018-09-28T14:04:55.917Z,14.93
2018-09-28T14:07:30.599Z,13.50
2018-09-28T14:10:05.401Z,12.17
2018-09-28T14:12:39.973Z,10.03
2018-09-28T14:15:14.421Z,14.23
2018-09-28T14:17:48.932Z,11.20
2018-09-28T14:20:23.490Z,7.73
2018-09-28T14:22:57.964Z,14.57
2018-09-28T14:25:32.556Z,17.97
2018-09-28T14:28:07.291Z,11.07
2018-09-28T14:30:41.797Z,9.27
2018-09-28T14:33:16.240Z,17.47
2018-09-28T14:35:51.123Z,10.77
2018-09-28T14:38:25.516Z,13.87
2018-09-28T14:41:00.336Z,12.47
2018-09-28T14:43:34.939Z,10.80
2018-09-28T14:46:09.650Z,6.70
2018-09-28T14:48:44.233Z,7.27
2018-09-28T14:51:18.588Z,14.80
2018-09-28T14:53:53.288Z,10.43
2018-09-28T14:56:27.992Z,11.67
2018-09-28T14:59:02.414Z,12.40
2018-09-28T15:01:36.953Z,11.27
2018-09-28T15:04:11.499Z,9.47
2018-09-28T15:06:46.126Z,6.67
2018-09-28T15:09:20.833Z,10.17
2018-09-28T15:11:55.388Z,7.90
2018-09-28T15:14:30.230Z,9.33
2018-09-28T15:17:04.725Z,12.17
2018-09-28T15:19:39.232Z,8.53
2018-09-28T15:22:13.753Z,7.97
2018-09-28T15:24:48.457Z,7.37
2018-09-28T15:27:23.008Z,13.40
2018-09-28T15:30:08.894Z,9.60
2018-09-28T15:32:47.532Z,10.60
2018-09-28T15:35:25.589Z,9.83
2018-09-28T15:38:00.021Z,9.63
2018-09-28T15:40:34.722Z,7.17
2018-09-28T15:43:09.314Z,12.07
2018-09-28T15:45:43.896Z,5.37
2018-09-28T15:48:18.682Z,5.00
2018-09-28T15:50:53.102Z,5.37
2018-09-28T15:53:27.652Z,6.87
2018-09-28T15:56:02.096Z,8.77
2018-09-28T15:58:37.050Z,10.07
2018-09-28T16:01:11.649Z,8.57
2018-09-28T16:03:46.138Z,8.53
2018-09-28T16:06:21.024Z,9.63
2018-09-28T16:08:55.946Z,8.90
2018-09-28T16:11:30.782Z,7.57
2018-09-28T16:14:05.520Z,7.07
2018-09-28T16:16:40.275Z,8.03
2018-09-28T16:19:14.992Z,12.87
2018-09-28T16:21:49.859Z,11.33
2018-09-28T16:24:24.410Z,9.20
2018-09-28T16:26:59.116Z,17.30
2018-09-28T16:29:34.080Z,6.53
2018-09-28T16:32:08.694Z,7.37
2018-09-28T16:34:43.420Z,10.93
2018-09-28T16:37:17.937Z,11.37
2018-09-28T16:39:52.592Z,11.93
2018-09-28T16:42:27.122Z,6.27
2018-09-28T16:45:01.748Z,9.27
2018-09-28T16:47:36.399Z,7.47
2018-09-28T16:50:10.931Z,10.13
2018-09-28T16:52:45.388Z,7.33
2018-09-28T16:55:20.105Z,8.20
2018-09-28T16:57:54.650Z,10.30
2018-09-28T17:00:29.320Z,8.27
2018-09-28T17:03:03.900Z,10.63
2018-09-28T17:05:38.448Z,7.50
2018-09-28T17:08:12.915Z,8.70
2018-09-28T17:10:47.572Z,8.07
2018-09-28T17:13:22.252Z,9.23
2018-09-28T17:15:57.052Z,7.77
2018-09-28T17:18:31.776Z,11.27
2018-09-28T17:21:06.129Z,8.20
2018-09-28T17:23:40.617Z,9.23
2018-09-28T17:26:15.121Z,7.67
2018-09-28T17:28:49.692Z,19.00
2018-09-28T17:31:24.480Z,11.47
2018-09-28T17:33:59.137Z,9.23
2018-09-28T17:36:33.767Z,8.97
2018-09-28T17:39:10.489Z,7.60
2018-09-28T17:41:45.044Z,10.47
2018-09-28T17:44:19.541Z,10.53
2018-09-28T17:46:54.002Z,12.00
2018-09-28T17:49:28.456Z,8.10
2018-09-28T17:52:02.993Z,14.50
2018-09-28T17:54:38.183Z,8.87
2018-09-28T17:57:12.591Z,13.47
2018-09-28T17:59:47.107Z,8.43
2018-09-28T18:02:21.518Z,12.43
2018-09-28T18:04:56.084Z,7.33
2018-09-28T18:07:30.773Z,11.17
2018-09-28T18:10:05.106Z,12.60
2018-09-28T18:12:39.644Z,10.63
2018-09-28T18:15:14.246Z,9.07
2018-09-28T18:17:48.719Z,10.53
2018-09-28T18:20:23.270Z,20.73
2018-09-28T18:22:57.675Z,16.23
2018-09-28T18:25:32.473Z,10.83
2018-09-28T18:28:07.139Z,13.20
2018-09-28T18:30:41.779Z,8.63
2018-09-28T18:33:16.188Z,7.73
2018-09-28T18:35:50.777Z,5.83
2018-09-28T18:38:25.222Z,5.87
2018-09-28T18:40:59.816Z,9.43
2018-09-28T18:43:34.639Z,9.23
2018-09-28T18:46:09.340Z,7.50
2018-09-28T18:48:43.933Z,6.07
2018-09-28T18:51:18.434Z,8.93
2018-09-28T18:53:53.001Z,7.70
2018-09-28T18:56:27.749Z,12.03
2018-09-28T18:59:02.344Z,7.20
2018-09-28T19:01:37.309Z,9.53
2018-09-28T19:04:15.585Z,10.13
2018-09-28T19:06:51.088Z,9.23
2018-09-28T19:09:25.856Z,8.00
2018-09-28T19:12:07.886Z,11.07
2018-09-28T19:14:44.476Z,7.17
2018-09-28T19:17:19.010Z,12.73
2018-09-28T19:19:53.500Z,5.47
2018-09-28T19:22:35.433Z,11.67
2018-09-28T19:25:14.872Z,7.20
2018-09-28T19:27:49.648Z,5.93
2018-09-28T19:30:24.194Z,6.13
2018-09-28T19:32:58.674Z,10.70
2018-09-28T19:35:33.574Z,9.57
2018-09-28T19:38:08.075Z,8.10
2018-09-28T19:40:42.577Z,11.23
2018-09-28T19:43:17.200Z,9.80
2018-09-28T19:45:51.672Z,5.77
2018-09-28T19:48:26.569Z,8.37
2018-09-28T19:51:01.497Z,9.10
2018-09-28T19:53:36.015Z,8.97
2018-09-28T19:56:10.556Z,7.80
2018-09-28T19:58:44.912Z,7.03
2018-09-28T20:01:19.279Z,12.00
2018-09-28T20:03:53.780Z,6.40
2018-09-28T20:06:28.390Z,4.47
2018-09-28T20:09:02.828Z,3.93
2018-09-28T20:11:37.337Z,8.63
2018-09-28T20:14:11.779Z,12.23
2018-09-28T20:16:46.356Z,9.60
2018-09-28T20:19:21.387Z,9.30
2018-09-28T20:21:56.137Z,7.10
2018-09-28T20:24:30.996Z,13.40
2018-09-28T20:27:05.632Z,8.13
2018-09-28T20:29:40.037Z,8.50
2018-09-28T20:32:14.844Z,11.07
2018-09-28T20:34:49.325Z,10.73
2018-09-28T20:37:23.817Z,11.80
2018-09-28T20:39:58.250Z,13.50
2018-09-28T20:42:32.845Z,7.17
2018-09-28T20:45:07.359Z,8.30
2018-09-28T20:47:41.802Z,9.27
2018-09-28T20:50:16.801Z,8.77
2018-09-28T20:52:51.415Z,9.47
2018-09-28T20:55:26.027Z,9.10
2018-09-28T20:58:00.624Z,9.07
2018-09-28T21:00:35.103Z,9.97
2018-09-28T21:03:09.592Z,10.73
2018-09-28T21:05:44.208Z,6.77
2018-09-28T21:08:18.713Z,8.50
2018-09-28T21:10:53.096Z,6.03
2018-09-28T21:13:27.592Z,11.50
2018-09-28T21:16:02.097Z,13.33
2018-09-28T21:18:36.701Z,12.77
2018-09-28T21:21:11.278Z,10.60
2018-09-28T21:23:45.882Z,9.60
2018-09-28T21:26:20.408Z,10.37
2018-09-28T21:28:54.917Z,15.93
2018-09-28T21:31:29.470Z,9.23
2018-09-28T21:34:04.073Z,9.00
2018-09-28T21:36:38.657Z,7.50
2018-09-28T21:39:13.174Z,10.97
2018-09-28T21:41:47.639Z,9.33
2018-09-28T21:44:22.133Z,9.93
2018-09-28T21:49:57.024Z,9.70
2018-09-28T21:52:31.609Z,6.77
2018-09-28T21:55:06.324Z,10.60
2018-09-28T21:57:40.842Z,6.30
2018-09-28T22:00:15.381Z,12.20
2018-09-28T22:02:50.156Z,6.87
2018-09-28T22:05:24.757Z,10.33
2018-09-28T22:07:59.537Z,11.47
2018-09-28T22:10:34.609Z,8.60
2018-09-28T22:13:09.088Z,11.03
2018-09-28T22:15:43.484Z,8.27
2018-09-28T22:18:17.969Z,13.30
2018-09-28T22:20:52.572Z,6.00
2018-09-28T22:23:27.136Z,7.43
2018-09-28T22:26:01.824Z,12.37
2018-09-28T22:28:36.340Z,6.87
2018-09-28T22:31:11.045Z,10.93
2018-09-28T22:33:45.689Z,10.80
2018-09-28T22:36:20.434Z,12.47
2018-09-28T22:38:54.940Z,8.77
2018-09-28T22:41:29.529Z,13.67
2018-09-28T22:44:04.268Z,7.13
2018-09-28T22:46:39.149Z,11.23
2018-09-28T22:49:13.744Z,11.67
2018-09-28T22:51:48.173Z,10.20
2018-09-28T22:54:26.241Z,8.10
2018-09-28T22:57:00.653Z,7.27
2018-09-28T22:59:35.446Z,9.40
2018-09-28T23:02:09.993Z,8.80
2018-09-28T23:04:44.671Z,10.93
2018-09-28T23:07:19.329Z,9.63
2018-09-28T23:09:53.684Z,11.23
2018-09-28T23:12:28.112Z,6.93
2018-09-28T23:15:03.017Z,8.20
2018-09-28T23:17:37.576Z,7.87
2018-09-28T23:20:11.992Z,7.93
2018-09-28T23:22:46.302Z,10.60
2018-09-28T23:25:21.225Z,11.77
2018-09-28T23:27:55.780Z,10.20
2018-09-28T23:30:30.389Z,9.00
2018-09-28T23:33:05.113Z,8.80
2018-09-28T23:35:39.642Z,9.63
2018-09-28T23:38:14.373Z,10.17
2018-09-28T23:40:49.050Z,4.67
2018-09-28T23:43:23.602Z,7.30
2018-09-28T23:45:58.148Z,8.57
2018-09-28T23:48:32.704Z,8.40
2018-09-28T23:51:07.189Z,7.67
2018-09-28T23:53:41.979Z,9.60
2018-09-28T23:56:16.347Z,6.83
2018-09-28T23:58:50.688Z,7.33
